Adam, Oman
Current Conditions -  °F | °C
As of 5:52 AM on Friday 28 Nov 2014 (Local Time) from EQMN Reporting Station
Clear Clear  
Wind Chill: 73°   Ceiling: Unl
Heat Index: 73°   Visibility: 6mi
Dew Point: 46°   Wind: 9mph
Humidity: 38%   Direction: 210°SSW
Pressure: 29.94"   Gusts: NA
Location:  22.38°N, 57.52°E
Report Text: EQMN 280152Z AUTO 21008KT CAVOK 23/08 Q1014
Loading
Personal Weather Stations






























Interactive Weather Map New forecast layout! Learn more

10-Day Weather Forecast

Advertisements
Track Severe Weather on mobile